RVA212 KFAT-KPHX
Flight info
| Callsign | RVA212 |
|---|---|
| Flight time | 1h 24m |
| Altitude | 39000 |
| Route | YOSE3 NTELL CABAB Q174 SKANN Q13 PRFUM WOTRO BRUSR1 |
| Aircraft | LJ35/M-SGHRWXY/SB1 |
Departure
| Time | 2026-04-22 18:28 |
|---|---|
| Airport | Fresno Yosemite International Airport (KFAT) |
Arrival
| Time | 2026-04-22 19:53 |
|---|---|
| Airport | Phoenix Sky Harbor International Airport (KPHX) |
| Time | Latitude | Longitude | Altitude | Speed | Heading |
|---|---|---|---|---|---|
| 2026-04-22 18:01 | 36.76937 | -119.71830 | 339 ft | 0 kts | 304° |
| 2026-04-22 18:04 | 36.76937 | -119.71831 | 339 ft | 0 kts | 304° |
| 2026-04-22 18:09 | 36.76937 | -119.71832 | 339 ft | 0 kts | 304° |
| 2026-04-22 18:15 | 36.76938 | -119.71832 | 339 ft | 0 kts | 304° |
| 2026-04-22 18:15 | 36.76945 | -119.71837 | 339 ft | 3 kts | 359° |
| 2026-04-22 18:16 | 36.76953 | -119.71806 | 339 ft | 6 kts | 96° |
| 2026-04-22 18:16 | 36.76935 | -119.71753 | 339 ft | 0 kts | 121° |
| 2026-04-22 18:16 | 36.76929 | -119.71740 | 339 ft | 4 kts | 109° |
| 2026-04-22 18:17 | 36.76956 | -119.71701 | 339 ft | 9 kts | 34° |
| 2026-04-22 18:17 | 36.77023 | -119.71641 | 339 ft | 15 kts | 36° |
| 2026-04-22 18:17 | 36.77114 | -119.71557 | 339 ft | 16 kts | 36° |
| 2026-04-22 18:17 | 36.77157 | -119.71496 | 339 ft | 7 kts | 100° |
| 2026-04-22 18:18 | 36.77129 | -119.71443 | 339 ft | 8 kts | 129° |
| 2026-04-22 18:18 | 36.77089 | -119.71377 | 339 ft | 11 kts | 126° |
| 2026-04-22 18:18 | 36.77043 | -119.71295 | 339 ft | 13 kts | 123° |
| 2026-04-22 18:18 | 36.76989 | -119.71196 | 339 ft | 14 kts | 126° |
| 2026-04-22 18:19 | 36.76944 | -119.71114 | 339 ft | 8 kts | 112° |
| 2026-04-22 18:19 | 36.76973 | -119.71070 | 339 ft | 6 kts | 34° |
| 2026-04-22 18:19 | 36.77000 | -119.71047 | 339 ft | 0 kts | 35° |
| 2026-04-22 18:20 | 36.77007 | -119.71041 | 339 ft | 3 kts | 33° |
| 2026-04-22 18:20 | 36.77032 | -119.71023 | 339 ft | 5 kts | 7° |
| 2026-04-22 18:20 | 36.77062 | -119.71063 | 339 ft | 0 kts | 306° |
| 2026-04-22 18:27 | 36.77083 | -119.71102 | 339 ft | 15 kts | 304° |
| 2026-04-22 18:27 | 36.77229 | -119.71367 | 339 ft | 65 kts | 308° |
| 2026-04-22 18:28 | 36.77610 | -119.72029 | 339 ft | 122 kts | 302° |
| 2026-04-22 18:28 | 36.78208 | -119.73055 | 426 ft | 162 kts | 301° |
| 2026-04-22 18:28 | 36.79000 | -119.74248 | 844 ft | 194 kts | 308° |
| 2026-04-22 18:28 | 36.79982 | -119.75561 | 1356 ft | 214 kts | 311° |
| 2026-04-22 18:29 | 36.81031 | -119.76946 | 2078 ft | 221 kts | 311° |
| 2026-04-22 18:29 | 36.82122 | -119.78400 | 2897 ft | 239 kts | 311° |
| 2026-04-22 18:29 | 36.83280 | -119.79967 | 3691 ft | 257 kts | 310° |
| 2026-04-22 18:29 | 36.84533 | -119.81653 | 4478 ft | 272 kts | 312° |
| 2026-04-22 18:30 | 36.85843 | -119.83418 | 5264 ft | 282 kts | 311° |
| 2026-04-22 18:30 | 36.88665 | -119.87044 | 6801 ft | 299 kts | 321° |
| 2026-04-22 18:30 | 36.90557 | -119.88154 | 7616 ft | 305 kts | 345° |
| 2026-04-22 18:31 | 36.92682 | -119.88238 | 8404 ft | 310 kts | 9° |
| 2026-04-22 18:31 | 36.94686 | -119.87267 | 9136 ft | 307 kts | 33° |
| 2026-04-22 18:31 | 36.96147 | -119.85446 | 9917 ft | 292 kts | 58° |
| 2026-04-22 18:31 | 36.96825 | -119.83120 | 10688 ft | 283 kts | 85° |
| 2026-04-22 18:32 | 36.96768 | -119.80733 | 11460 ft | 276 kts | 101° |
| 2026-04-22 18:32 | 36.96512 | -119.78338 | 12238 ft | 284 kts | 101° |
| 2026-04-22 18:32 | 36.96356 | -119.75795 | 13031 ft | 302 kts | 95° |
| 2026-04-22 18:32 | 36.96424 | -119.73101 | 13818 ft | 318 kts | 88° |
| 2026-04-22 18:33 | 36.96758 | -119.70307 | 14603 ft | 332 kts | 81° |
| 2026-04-22 18:33 | 36.97339 | -119.67462 | 15387 ft | 343 kts | 76° |
| 2026-04-22 18:33 | 36.98108 | -119.64593 | 16170 ft | 352 kts | 72° |
| 2026-04-22 18:33 | 36.98999 | -119.61709 | 16951 ft | 358 kts | 70° |
| 2026-04-22 18:34 | 36.99951 | -119.58804 | 17728 ft | 363 kts | 69° |
| 2026-04-22 18:34 | 37.00931 | -119.55878 | 18503 ft | 367 kts | 69° |
| 2026-04-22 18:34 | 37.01931 | -119.52924 | 19279 ft | 369 kts | 68° |
| 2026-04-22 18:34 | 37.02923 | -119.49959 | 20053 ft | 370 kts | 69° |
| 2026-04-22 18:35 | 37.03902 | -119.46985 | 20826 ft | 369 kts | 69° |
| 2026-04-22 18:35 | 37.04877 | -119.44009 | 21599 ft | 368 kts | 69° |
| 2026-04-22 18:35 | 37.05831 | -119.41095 | 22359 ft | 365 kts | 69° |
| 2026-04-22 18:35 | 37.06791 | -119.38157 | 23130 ft | 362 kts | 69° |
| 2026-04-22 18:36 | 37.07733 | -119.35261 | 23896 ft | 357 kts | 70° |
| 2026-04-22 18:36 | 37.08650 | -119.32392 | 24663 ft | 351 kts | 69° |
| 2026-04-22 18:36 | 37.09557 | -119.29586 | 25426 ft | 343 kts | 69° |
| 2026-04-22 18:36 | 37.10434 | -119.26848 | 26184 ft | 334 kts | 70° |
| 2026-04-22 18:37 | 37.11289 | -119.24196 | 26936 ft | 322 kts | 70° |
| 2026-04-22 18:37 | 37.12103 | -119.21651 | 27674 ft | 307 kts | 70° |
| 2026-04-22 18:37 | 37.12623 | -119.20035 | 28150 ft | 296 kts | 70° |
| 2026-04-22 18:37 | 37.13595 | -119.17005 | 29063 ft | 263 kts | 70° |
| 2026-04-22 18:38 | 37.14255 | -119.14961 | 29508 ft | 249 kts | 70° |
| 2026-04-22 18:38 | 37.14926 | -119.12862 | 29405 ft | 270 kts | 70° |
| 2026-04-22 18:38 | 37.15623 | -119.10662 | 29615 ft | 272 kts | 70° |
| 2026-04-22 18:39 | 37.17029 | -119.06279 | 30104 ft | 278 kts | 70° |
| 2026-04-22 18:39 | 37.17781 | -119.03939 | 30181 ft | 292 kts | 70° |
| 2026-04-22 18:39 | 37.18556 | -119.01515 | 30278 ft | 308 kts | 70° |
| 2026-04-22 18:39 | 37.19361 | -118.98988 | 30524 ft | 317 kts | 71° |
| 2026-04-22 18:40 | 37.20199 | -118.96349 | 30661 ft | 333 kts | 70° |
| 2026-04-22 18:40 | 37.21061 | -118.93629 | 30887 ft | 346 kts | 70° |
| 2026-04-22 18:40 | 37.21968 | -118.90760 | 31099 ft | 361 kts | 70° |
| 2026-04-22 18:40 | 37.22911 | -118.87768 | 31316 ft | 375 kts | 70° |
| 2026-04-22 18:41 | 37.23889 | -118.84661 | 31531 ft | 390 kts | 70° |
| 2026-04-22 18:41 | 37.24909 | -118.81434 | 31744 ft | 404 kts | 69° |
| 2026-04-22 18:41 | 37.25970 | -118.78086 | 31956 ft | 418 kts | 70° |
| 2026-04-22 18:41 | 37.26901 | -118.74583 | 32162 ft | 429 kts | 81° |
| 2026-04-22 18:42 | 37.27143 | -118.70844 | 32369 ft | 430 kts | 100° |
| 2026-04-22 18:42 | 37.26581 | -118.67179 | 32578 ft | 426 kts | 117° |
| 2026-04-22 18:42 | 37.25394 | -118.63798 | 32788 ft | 423 kts | 129° |
| 2026-04-22 18:42 | 37.23820 | -118.60660 | 32997 ft | 425 kts | 136° |
| 2026-04-22 18:43 | 37.22052 | -118.57659 | 33203 ft | 431 kts | 138° |
| 2026-04-22 18:43 | 37.20195 | -118.54657 | 33408 ft | 440 kts | 138° |
| 2026-04-22 18:43 | 37.18323 | -118.51575 | 33611 ft | 450 kts | 137° |
| 2026-04-22 18:43 | 37.16464 | -118.48369 | 33814 ft | 459 kts | 135° |
| 2026-04-22 18:44 | 37.14653 | -118.45086 | 34015 ft | 467 kts | 134° |
| 2026-04-22 18:44 | 37.12840 | -118.41678 | 34217 ft | 474 kts | 133° |
| 2026-04-22 18:44 | 37.11032 | -118.38188 | 34420 ft | 479 kts | 133° |
| 2026-04-22 18:44 | 37.09208 | -118.34664 | 34623 ft | 484 kts | 132° |
| 2026-04-22 18:45 | 37.07366 | -118.31110 | 34825 ft | 488 kts | 132° |
| 2026-04-22 18:45 | 37.05509 | -118.27534 | 35026 ft | 491 kts | 132° |
| 2026-04-22 18:45 | 37.03714 | -118.23855 | 35227 ft | 499 kts | 128° |
| 2026-04-22 18:45 | 37.02149 | -118.19928 | 35427 ft | 511 kts | 119° |
| 2026-04-22 18:46 | 37.01076 | -118.15639 | 35630 ft | 523 kts | 109° |
| 2026-04-22 18:46 | 37.00616 | -118.11065 | 35831 ft | 536 kts | 95° |
| 2026-04-22 18:46 | 37.00957 | -118.06393 | 36033 ft | 544 kts | 81° |
| 2026-04-22 18:46 | 37.02149 | -118.01899 | 36234 ft | 548 kts | 65° |
| 2026-04-22 18:47 | 37.04058 | -117.97779 | 36440 ft | 547 kts | 54° |
| 2026-04-22 18:47 | 37.06328 | -117.93964 | 36642 ft | 546 kts | 49° |
| 2026-04-22 18:47 | 37.08818 | -117.90388 | 36843 ft | 544 kts | 44° |
| 2026-04-22 18:47 | 37.11436 | -117.87048 | 37042 ft | 543 kts | 41° |
| 2026-04-22 18:48 | 37.14201 | -117.83744 | 37245 ft | 542 kts | 40° |
| 2026-04-22 18:48 | 37.16936 | -117.80591 | 37442 ft | 541 kts | 39° |
| 2026-04-22 18:48 | 37.19856 | -117.77643 | 37642 ft | 536 kts | 32° |
| 2026-04-22 18:48 | 37.22943 | -117.75047 | 37843 ft | 532 kts | 27° |
| 2026-04-22 18:49 | 37.26099 | -117.72655 | 38044 ft | 530 kts | 25° |
| 2026-04-22 18:49 | 37.29287 | -117.70376 | 38244 ft | 524 kts | 24° |
| 2026-04-22 18:49 | 37.32462 | -117.68178 | 38443 ft | 519 kts | 24° |
| 2026-04-22 18:49 | 37.35589 | -117.65938 | 38633 ft | 518 kts | 30° |
| 2026-04-22 18:50 | 37.38297 | -117.62941 | 38775 ft | 520 kts | 47° |
| 2026-04-22 18:50 | 37.40327 | -117.59193 | 38853 ft | 520 kts | 64° |
| 2026-04-22 18:50 | 37.41579 | -117.54952 | 38877 ft | 516 kts | 78° |
| 2026-04-22 18:50 | 37.42249 | -117.50527 | 38880 ft | 513 kts | 88° |
| 2026-04-22 18:51 | 37.41926 | -117.41728 | 38880 ft | 497 kts | 111° |
| 2026-04-22 18:51 | 37.40656 | -117.37770 | 38881 ft | 480 kts | 128° |
| 2026-04-22 18:51 | 37.38805 | -117.34343 | 38884 ft | 471 kts | 136° |
| 2026-04-22 18:52 | 37.34755 | -117.27872 | 38885 ft | 471 kts | 137° |
| 2026-04-22 18:52 | 37.30716 | -117.21365 | 38885 ft | 473 kts | 137° |
| 2026-04-22 18:53 | 37.26721 | -117.14847 | 38886 ft | 475 kts | 137° |
| 2026-04-22 18:53 | 37.22709 | -117.08249 | 38887 ft | 476 kts | 136° |
| 2026-04-22 18:54 | 37.18704 | -117.01630 | 38888 ft | 477 kts | 136° |
| 2026-04-22 18:54 | 37.14701 | -116.94981 | 38889 ft | 478 kts | 136° |
| 2026-04-22 18:55 | 37.10702 | -116.88308 | 38890 ft | 479 kts | 136° |
| 2026-04-22 18:55 | 37.06707 | -116.81610 | 38890 ft | 480 kts | 136° |
| 2026-04-22 18:56 | 37.03398 | -116.76037 | 38890 ft | 481 kts | 136° |
| 2026-04-22 18:56 | 36.99408 | -116.69293 | 38890 ft | 481 kts | 136° |
| 2026-04-22 18:57 | 36.95426 | -116.62540 | 38890 ft | 482 kts | 136° |
| 2026-04-22 18:57 | 36.91450 | -116.55771 | 38890 ft | 483 kts | 136° |
| 2026-04-22 18:58 | 36.87445 | -116.49039 | 38890 ft | 483 kts | 137° |
| 2026-04-22 18:58 | 36.83439 | -116.42359 | 38890 ft | 483 kts | 137° |
| 2026-04-22 18:59 | 36.79412 | -116.35640 | 38891 ft | 484 kts | 137° |
| 2026-04-22 18:59 | 36.75386 | -116.28900 | 38890 ft | 485 kts | 137° |
| 2026-04-22 19:00 | 36.71353 | -116.22127 | 38890 ft | 486 kts | 137° |
| 2026-04-22 19:00 | 36.67332 | -116.15346 | 38891 ft | 486 kts | 137° |
| 2026-04-22 19:01 | 36.63318 | -116.08550 | 38890 ft | 487 kts | 137° |
| 2026-04-22 19:01 | 36.59303 | -116.01730 | 38891 ft | 488 kts | 137° |
| 2026-04-22 19:02 | 36.55302 | -115.94899 | 38891 ft | 489 kts | 137° |
| 2026-04-22 19:02 | 36.51306 | -115.88036 | 38891 ft | 490 kts | 136° |
| 2026-04-22 19:03 | 36.47338 | -115.81200 | 38891 ft | 491 kts | 136° |
| 2026-04-22 19:03 | 36.43347 | -115.74313 | 38891 ft | 492 kts | 136° |
| 2026-04-22 19:04 | 36.39349 | -115.67408 | 38891 ft | 492 kts | 136° |
| 2026-04-22 19:04 | 36.35356 | -115.60508 | 38891 ft | 493 kts | 136° |
| 2026-04-22 19:05 | 36.31357 | -115.53589 | 38892 ft | 493 kts | 136° |
| 2026-04-22 19:05 | 36.27360 | -115.46668 | 38892 ft | 493 kts | 136° |
| 2026-04-22 19:06 | 36.23366 | -115.39747 | 38892 ft | 494 kts | 136° |
| 2026-04-22 19:07 | 36.17373 | -115.29349 | 38875 ft | 494 kts | 136° |
| 2026-04-22 19:07 | 36.13416 | -115.22464 | 38875 ft | 494 kts | 136° |
| 2026-04-22 19:08 | 36.09428 | -115.15512 | 38880 ft | 494 kts | 136° |
| 2026-04-22 19:08 | 36.05461 | -115.08584 | 38886 ft | 494 kts | 136° |
| 2026-04-22 19:09 | 36.01494 | -115.01654 | 38889 ft | 493 kts | 136° |
| 2026-04-22 19:09 | 35.97397 | -114.94901 | 38898 ft | 489 kts | 140° |
| 2026-04-22 19:10 | 35.92967 | -114.88608 | 38890 ft | 480 kts | 146° |
| 2026-04-22 19:10 | 35.88148 | -114.83028 | 38889 ft | 478 kts | 148° |
| 2026-04-22 19:10 | 35.86040 | -114.79742 | 38889 ft | 501 kts | 133° |
| 2026-04-22 19:11 | 35.84381 | -114.75889 | 38891 ft | 512 kts | 124° |
| 2026-04-22 19:11 | 35.81742 | -114.67630 | 38892 ft | 521 kts | 118° |
| 2026-04-22 19:12 | 35.79414 | -114.59232 | 38892 ft | 522 kts | 117° |
| 2026-04-22 19:12 | 35.77071 | -114.50757 | 38892 ft | 522 kts | 118° |
| 2026-04-22 19:13 | 35.74632 | -114.42335 | 38892 ft | 521 kts | 119° |
| 2026-04-22 19:13 | 35.72056 | -114.34012 | 38898 ft | 519 kts | 121° |
| 2026-04-22 19:14 | 35.69313 | -114.25816 | 38905 ft | 517 kts | 123° |
| 2026-04-22 19:14 | 35.66358 | -114.17795 | 38913 ft | 513 kts | 125° |
| 2026-04-22 19:15 | 35.63690 | -114.11310 | 38920 ft | 509 kts | 128° |
| 2026-04-22 19:15 | 35.59496 | -114.02650 | 38929 ft | 499 kts | 135° |
| 2026-04-22 19:16 | 35.55272 | -113.96065 | 38936 ft | 482 kts | 146° |
| 2026-04-22 19:16 | 35.50519 | -113.90324 | 38962 ft | 481 kts | 146° |
| 2026-04-22 19:17 | 35.46118 | -113.83994 | 38976 ft | 494 kts | 137° |
| 2026-04-22 19:17 | 35.42244 | -113.76937 | 38977 ft | 502 kts | 133° |
| 2026-04-22 19:18 | 35.38569 | -113.69709 | 38977 ft | 502 kts | 132° |
| 2026-04-22 19:18 | 35.34797 | -113.62515 | 38978 ft | 501 kts | 133° |
| 2026-04-22 19:19 | 35.30916 | -113.55425 | 38978 ft | 500 kts | 134° |
| 2026-04-22 19:19 | 35.27025 | -113.48362 | 38978 ft | 501 kts | 134° |
| 2026-04-22 19:20 | 35.23132 | -113.41279 | 38978 ft | 501 kts | 134° |
| 2026-04-22 19:20 | 35.19241 | -113.34208 | 38985 ft | 501 kts | 134° |
| 2026-04-22 19:21 | 35.15338 | -113.27196 | 38990 ft | 486 kts | 134° |
| 2026-04-22 19:21 | 35.13542 | -113.23904 | 38994 ft | 459 kts | 134° |
| 2026-04-22 19:21 | 35.11837 | -113.20718 | 38821 ft | 439 kts | 134° |
| 2026-04-22 19:21 | 35.10179 | -113.17623 | 38346 ft | 430 kts | 134° |
| 2026-04-22 19:22 | 35.08557 | -113.14603 | 37910 ft | 420 kts | 135° |
| 2026-04-22 19:22 | 35.06958 | -113.11656 | 37481 ft | 412 kts | 135° |
| 2026-04-22 19:22 | 35.05384 | -113.08768 | 37053 ft | 406 kts | 135° |
| 2026-04-22 19:22 | 35.03833 | -113.05924 | 36627 ft | 400 kts | 135° |
| 2026-04-22 19:23 | 35.02302 | -113.03113 | 36199 ft | 394 kts | 136° |
| 2026-04-22 19:23 | 35.00781 | -113.00354 | 35773 ft | 389 kts | 136° |
| 2026-04-22 19:23 | 34.99274 | -112.97633 | 35346 ft | 385 kts | 136° |
| 2026-04-22 19:23 | 34.97781 | -112.94940 | 34920 ft | 381 kts | 136° |
| 2026-04-22 19:24 | 34.96321 | -112.92303 | 34500 ft | 379 kts | 136° |
| 2026-04-22 19:24 | 34.94856 | -112.89651 | 34076 ft | 376 kts | 136° |
| 2026-04-22 19:24 | 34.93398 | -112.87012 | 33650 ft | 374 kts | 136° |
| 2026-04-22 19:24 | 34.91948 | -112.84389 | 33225 ft | 372 kts | 136° |
| 2026-04-22 19:25 | 34.90510 | -112.81791 | 32800 ft | 369 kts | 136° |
| 2026-04-22 19:25 | 34.89075 | -112.79205 | 32374 ft | 367 kts | 136° |
| 2026-04-22 19:25 | 34.87644 | -112.76644 | 31948 ft | 365 kts | 136° |
| 2026-04-22 19:25 | 34.86213 | -112.74095 | 31523 ft | 363 kts | 136° |
| 2026-04-22 19:26 | 34.84792 | -112.71568 | 31098 ft | 361 kts | 136° |
| 2026-04-22 19:26 | 34.83369 | -112.69050 | 30672 ft | 359 kts | 136° |
| 2026-04-22 19:26 | 34.81951 | -112.66549 | 30247 ft | 358 kts | 136° |
| 2026-04-22 19:26 | 34.80536 | -112.64066 | 29823 ft | 357 kts | 136° |
| 2026-04-22 19:27 | 34.79134 | -112.61578 | 29398 ft | 356 kts | 135° |
| 2026-04-22 19:27 | 34.77753 | -112.59116 | 28978 ft | 356 kts | 135° |
| 2026-04-22 19:27 | 34.76359 | -112.56630 | 28553 ft | 355 kts | 135° |
| 2026-04-22 19:27 | 34.74968 | -112.54153 | 28128 ft | 354 kts | 135° |
| 2026-04-22 19:28 | 34.73579 | -112.51693 | 27704 ft | 351 kts | 135° |
| 2026-04-22 19:28 | 34.72184 | -112.49296 | 27278 ft | 343 kts | 138° |
| 2026-04-22 19:28 | 34.70678 | -112.47109 | 26852 ft | 332 kts | 144° |
| 2026-04-22 19:28 | 34.69078 | -112.45154 | 26427 ft | 322 kts | 148° |
| 2026-04-22 19:29 | 34.67421 | -112.43372 | 26001 ft | 315 kts | 151° |
| 2026-04-22 19:29 | 34.65739 | -112.41699 | 25575 ft | 310 kts | 153° |
| 2026-04-22 19:29 | 34.64055 | -112.40081 | 25150 ft | 307 kts | 153° |
| 2026-04-22 19:29 | 34.62378 | -112.38496 | 24725 ft | 305 kts | 153° |
| 2026-04-22 19:30 | 34.61269 | -112.37448 | 24443 ft | 304 kts | 153° |
| 2026-04-22 19:30 | 34.59048 | -112.35332 | 23873 ft | 302 kts | 153° |
| 2026-04-22 19:30 | 34.57396 | -112.33756 | 23448 ft | 301 kts | 153° |
| 2026-04-22 19:30 | 34.55752 | -112.32187 | 23023 ft | 301 kts | 152° |
| 2026-04-22 19:31 | 34.54119 | -112.30606 | 22598 ft | 300 kts | 152° |
| 2026-04-22 19:31 | 34.52493 | -112.29019 | 22173 ft | 299 kts | 152° |
| 2026-04-22 19:31 | 34.50871 | -112.27437 | 21748 ft | 298 kts | 152° |
| 2026-04-22 19:31 | 34.49271 | -112.25897 | 21329 ft | 297 kts | 152° |
| 2026-04-22 19:32 | 34.47653 | -112.24337 | 20904 ft | 296 kts | 152° |
| 2026-04-22 19:32 | 34.45977 | -112.22949 | 20480 ft | 287 kts | 161° |
| 2026-04-22 19:32 | 34.44193 | -112.21930 | 20057 ft | 279 kts | 169° |
| 2026-04-22 19:32 | 34.42370 | -112.21196 | 19634 ft | 274 kts | 174° |
| 2026-04-22 19:33 | 34.40532 | -112.20633 | 19211 ft | 271 kts | 176° |
| 2026-04-22 19:33 | 34.38694 | -112.20154 | 18787 ft | 269 kts | 178° |
| 2026-04-22 19:33 | 34.36858 | -112.19708 | 18362 ft | 268 kts | 178° |
| 2026-04-22 19:33 | 34.35027 | -112.19278 | 17937 ft | 268 kts | 178° |
| 2026-04-22 19:34 | 34.33198 | -112.18846 | 17514 ft | 268 kts | 178° |
| 2026-04-22 19:34 | 34.31365 | -112.18400 | 17087 ft | 268 kts | 177° |
| 2026-04-22 19:34 | 34.29537 | -112.17955 | 16662 ft | 268 kts | 177° |
| 2026-04-22 19:34 | 34.27712 | -112.17517 | 16239 ft | 268 kts | 177° |
| 2026-04-22 19:35 | 34.25913 | -112.17074 | 15820 ft | 268 kts | 176° |
| 2026-04-22 19:35 | 34.24089 | -112.16620 | 15404 ft | 264 kts | 176° |
| 2026-04-22 19:35 | 34.22889 | -112.16318 | 15115 ft | 258 kts | 176° |
| 2026-04-22 19:35 | 34.20616 | -112.15743 | 14541 ft | 246 kts | 176° |
| 2026-04-22 19:36 | 34.18959 | -112.15324 | 14114 ft | 240 kts | 176° |
| 2026-04-22 19:36 | 34.17341 | -112.14919 | 13689 ft | 235 kts | 176° |
| 2026-04-22 19:36 | 34.15747 | -112.14528 | 13266 ft | 232 kts | 176° |
| 2026-04-22 19:36 | 34.14171 | -112.14162 | 12833 ft | 230 kts | 176° |
| 2026-04-22 19:37 | 34.12607 | -112.13797 | 12406 ft | 228 kts | 176° |
| 2026-04-22 19:37 | 34.11053 | -112.13439 | 11986 ft | 227 kts | 176° |
| 2026-04-22 19:37 | 34.09507 | -112.13025 | 11565 ft | 228 kts | 172° |
| 2026-04-22 19:37 | 34.07972 | -112.12526 | 11142 ft | 228 kts | 169° |
| 2026-04-22 19:38 | 34.06443 | -112.11990 | 10721 ft | 228 kts | 168° |
| 2026-04-22 19:38 | 34.04941 | -112.11451 | 10302 ft | 229 kts | 167° |
| 2026-04-22 19:38 | 34.03413 | -112.10901 | 9885 ft | 229 kts | 167° |
| 2026-04-22 19:38 | 34.01881 | -112.10355 | 9461 ft | 229 kts | 166° |
| 2026-04-22 19:39 | 34.00353 | -112.09812 | 9115 ft | 227 kts | 166° |
| 2026-04-22 19:39 | 33.98854 | -112.09277 | 9011 ft | 226 kts | 165° |
| 2026-04-22 19:39 | 33.97355 | -112.08733 | 8982 ft | 224 kts | 164° |
| 2026-04-22 19:39 | 33.95865 | -112.08173 | 8966 ft | 225 kts | 164° |
| 2026-04-22 19:40 | 33.94361 | -112.07597 | 8989 ft | 226 kts | 163° |
| 2026-04-22 19:40 | 33.92862 | -112.07002 | 8999 ft | 228 kts | 163° |
| 2026-04-22 19:40 | 33.91349 | -112.06388 | 9016 ft | 230 kts | 163° |
| 2026-04-22 19:40 | 33.89834 | -112.05771 | 9019 ft | 231 kts | 163° |
| 2026-04-22 19:41 | 33.88819 | -112.05356 | 9017 ft | 232 kts | 163° |
| 2026-04-22 19:41 | 33.87285 | -112.04727 | 9017 ft | 234 kts | 163° |
| 2026-04-22 19:41 | 33.85745 | -112.04094 | 9022 ft | 235 kts | 163° |
| 2026-04-22 19:41 | 33.83665 | -112.03256 | 9025 ft | 236 kts | 163° |
| 2026-04-22 19:42 | 33.82633 | -112.02835 | 9009 ft | 236 kts | 163° |
| 2026-04-22 19:42 | 33.81084 | -112.02212 | 9010 ft | 235 kts | 163° |
| 2026-04-22 19:42 | 33.79533 | -112.01580 | 9011 ft | 235 kts | 163° |
| 2026-04-22 19:42 | 33.77982 | -112.00956 | 9002 ft | 234 kts | 163° |
| 2026-04-22 19:43 | 33.74905 | -111.99712 | 9003 ft | 233 kts | 163° |
| 2026-04-22 19:43 | 33.73374 | -111.99090 | 9015 ft | 233 kts | 163° |
| 2026-04-22 19:43 | 33.71823 | -111.98469 | 9018 ft | 236 kts | 163° |
| 2026-04-22 19:44 | 33.70263 | -111.97834 | 9011 ft | 237 kts | 163° |
| 2026-04-22 19:44 | 33.68700 | -111.97207 | 9014 ft | 236 kts | 163° |
| 2026-04-22 19:44 | 33.67150 | -111.96576 | 9021 ft | 234 kts | 163° |
| 2026-04-22 19:44 | 33.65613 | -111.95957 | 9019 ft | 232 kts | 163° |
| 2026-04-22 19:45 | 33.64092 | -111.95344 | 9019 ft | 230 kts | 163° |
| 2026-04-22 19:45 | 33.62575 | -111.94728 | 9024 ft | 229 kts | 163° |
| 2026-04-22 19:45 | 33.61070 | -111.94121 | 9027 ft | 228 kts | 163° |
| 2026-04-22 19:45 | 33.59560 | -111.93512 | 9010 ft | 228 kts | 163° |
| 2026-04-22 19:46 | 33.58045 | -111.92902 | 8938 ft | 232 kts | 163° |
| 2026-04-22 19:46 | 33.56487 | -111.92275 | 8700 ft | 238 kts | 163° |
| 2026-04-22 19:46 | 33.54928 | -111.91642 | 8461 ft | 235 kts | 162° |
| 2026-04-22 19:46 | 33.53592 | -111.90556 | 8216 ft | 236 kts | 134° |
| 2026-04-22 19:47 | 33.52899 | -111.88793 | 7982 ft | 236 kts | 105° |
| 2026-04-22 19:47 | 33.52680 | -111.86893 | 7732 ft | 228 kts | 107° |
| 2026-04-22 19:47 | 33.51950 | -111.85306 | 7475 ft | 212 kts | 137° |
| 2026-04-22 19:47 | 33.50809 | -111.84255 | 7194 ft | 206 kts | 152° |
| 2026-04-22 19:48 | 33.49554 | -111.83471 | 6815 ft | 197 kts | 158° |
| 2026-04-22 19:48 | 33.48327 | -111.82836 | 6430 ft | 188 kts | 160° |
| 2026-04-22 19:48 | 33.47152 | -111.82274 | 6051 ft | 172 kts | 161° |
| 2026-04-22 19:48 | 33.46081 | -111.81781 | 5667 ft | 159 kts | 162° |
| 2026-04-22 19:49 | 33.45051 | -111.81479 | 5264 ft | 149 kts | 186° |
| 2026-04-22 19:49 | 33.44199 | -111.82066 | 4888 ft | 147 kts | 232° |
| 2026-04-22 19:49 | 33.43951 | -111.83273 | 4555 ft | 155 kts | 264° |
| 2026-04-22 19:49 | 33.43996 | -111.84583 | 4191 ft | 159 kts | 269° |
| 2026-04-22 19:50 | 33.44084 | -111.85869 | 4044 ft | 149 kts | 270° |
| 2026-04-22 19:50 | 33.44176 | -111.87062 | 3971 ft | 137 kts | 270° |
| 2026-04-22 19:50 | 33.44268 | -111.88174 | 3964 ft | 152 kts | 270° |
| 2026-04-22 19:50 | 33.44361 | -111.89657 | 4146 ft | 186 kts | 270° |
| 2026-04-22 19:51 | 33.44415 | -111.91095 | 3965 ft | 159 kts | 263° |
| 2026-04-22 19:51 | 33.44366 | -111.92311 | 3952 ft | 135 kts | 262° |
| 2026-04-22 19:51 | 33.44330 | -111.93358 | 3810 ft | 125 kts | 263° |
| 2026-04-22 19:51 | 33.44367 | -111.94405 | 3231 ft | 124 kts | 265° |
| 2026-04-22 19:52 | 33.44347 | -111.95431 | 2647 ft | 122 kts | 259° |
| 2026-04-22 19:52 | 33.44247 | -111.96469 | 2000 ft | 128 kts | 261° |
| 2026-04-22 19:52 | 33.44161 | -111.97488 | 1563 ft | 118 kts | 263° |
| 2026-04-22 19:52 | 33.44120 | -111.98438 | 1241 ft | 113 kts | 263° |
| 2026-04-22 19:53 | 33.44072 | -111.99379 | 1150 ft | 108 kts | 266° |
| 2026-04-22 19:53 | 33.44078 | -112.00013 | 1138 ft | 26 kts | 269° |
| 2026-04-22 19:53 | 33.44057 | -112.00118 | 1138 ft | 3 kts | 226° |
| 2026-04-22 19:53 | 33.44050 | -112.00126 | 1138 ft | 1 kts | 222° |
| 2026-04-22 19:54 | 33.44032 | -112.00128 | 1138 ft | 3 kts | 179° |
| 2026-04-22 19:54 | 33.44013 | -112.00128 | 1138 ft | 3 kts | 183° |
| 2026-04-22 19:54 | 33.43994 | -112.00133 | 1138 ft | 4 kts | 201° |
| 2026-04-22 19:54 | 33.43972 | -112.00171 | 1138 ft | 7 kts | 258° |
| 2026-04-22 19:55 | 33.43970 | -112.00246 | 1138 ft | 10 kts | 271° |
| 2026-04-22 19:55 | 33.43970 | -112.00333 | 1138 ft | 10 kts | 269° |
| 2026-04-22 19:55 | 33.43926 | -112.00376 | 1138 ft | 9 kts | 180° |
| 2026-04-22 19:55 | 33.43870 | -112.00376 | 1138 ft | 8 kts | 181° |
| 2026-04-22 19:56 | 33.43815 | -112.00377 | 1138 ft | 9 kts | 180° |
| 2026-04-22 19:56 | 33.43749 | -112.00377 | 1138 ft | 10 kts | 181° |
| 2026-04-22 19:56 | 33.43670 | -112.00379 | 1138 ft | 12 kts | 181° |
| 2026-04-22 19:56 | 33.43579 | -112.00378 | 1138 ft | 14 kts | 180° |
| 2026-04-22 19:57 | 33.43480 | -112.00379 | 1138 ft | 15 kts | 180° |
| 2026-04-22 19:57 | 33.43377 | -112.00378 | 1138 ft | 14 kts | 179° |
| 2026-04-22 19:57 | 33.43303 | -112.00384 | 1138 ft | 8 kts | 210° |
| 2026-04-22 19:57 | 33.43278 | -112.00439 | 1138 ft | 8 kts | 244° |
| 2026-04-22 19:58 | 33.43234 | -112.00467 | 1138 ft | 8 kts | 204° |
| 2026-04-22 19:58 | 33.43211 | -112.00523 | 1138 ft | 9 kts | 271° |
| 2026-04-22 19:58 | 33.43184 | -112.00592 | 1138 ft | 10 kts | 229° |
| 2026-04-22 19:58 | 33.43132 | -112.00657 | 1138 ft | 11 kts | 232° |
| 2026-04-22 19:59 | 33.43105 | -112.00755 | 1138 ft | 14 kts | 265° |
| 2026-04-22 20:00 | 33.42856 | -112.01105 | 1138 ft | 10 kts | 177° |
| 2026-04-22 20:00 | 33.42783 | -112.01109 | 1138 ft | 8 kts | 213° |
| 2026-04-22 20:01 | 33.42772 | -112.01181 | 1138 ft | 11 kts | 270° |
| 2026-04-22 20:01 | 33.42773 | -112.01289 | 1138 ft | 16 kts | 270° |
| 2026-04-22 20:01 | 33.42773 | -112.01426 | 1138 ft | 15 kts | 269° |
| 2026-04-22 20:01 | 33.42742 | -112.01491 | 1138 ft | 9 kts | 195° |
| 2026-04-22 20:02 | 33.42690 | -112.01549 | 1138 ft | 13 kts | 256° |
| 2026-04-22 20:02 | 33.42687 | -112.01651 | 1138 ft | 12 kts | 257° |
| 2026-04-22 20:02 | 33.42653 | -112.01728 | 1138 ft | 12 kts | 278° |
| 2026-04-22 20:02 | 33.42698 | -112.01833 | 1138 ft | 16 kts | 305° |
| 2026-04-22 20:03 | 33.42767 | -112.01945 | 1138 ft | 17 kts | 291° |
| 2026-04-22 20:03 | 33.42766 | -112.02030 | 1138 ft | 0 kts | 231° |
| 2026-04-22 20:03 | 33.42763 | -112.02064 | 1138 ft | 11 kts | 270° |
| 2026-04-22 20:03 | 33.42741 | -112.02117 | 1138 ft | 7 kts | 190° |
| 2026-04-22 20:04 | 33.42675 | -112.02117 | 1138 ft | 12 kts | 179° |
| 2026-04-22 20:04 | 33.42599 | -112.02096 | 1138 ft | 10 kts | 114° |